Time;durP1;ratioP1;P1;durP2;ratioP2;P2;SDS_P1;SDS_P2;PMS_P1;PMS_P2;Temp;Humidity;BMP_temperature;BMP_pressure;BME280_temperature;BME280_humidity;BME280_pressure;Samples;Min_cycle;Max_cycle;Signal;HPM_P1;HPM_P2
2022/03/25 00:02:14;;;;;;;44.70;32.50;;;9.60;93.00;;;;;;5033968;28;20167;-68
2022/03/25 00:04:40;;;;;;;45.37;33.13;;;9.50;93.20;;;;;;5035366;28;20439;-70
2022/03/25 00:07:05;;;;;;;45.53;31.67;;;9.50;93.30;;;;;;5035360;28;20171;-67
2022/03/25 00:09:31;;;;;;;44.70;31.03;;;9.50;93.30;;;;;;5034891;28;20225;-68
2022/03/25 00:11:57;;;;;;;38.13;29.63;;;9.60;93.30;;;;;;5034003;28;20190;-67
2022/03/25 00:14:22;;;;;;;43.13;31.60;;;9.50;93.30;;;;;;5033925;28;20183;-67
2022/03/25 00:16:48;;;;;;;41.60;30.57;;;9.40;93.40;;;;;;5034950;28;20183;-67
2022/03/25 00:19:14;;;;;;;47.33;33.43;;;9.40;93.50;;;;;;5032649;28;20927;-67
2022/03/25 00:21:39;;;;;;;43.20;30.43;;;9.40;93.60;;;;;;5034645;28;20184;-68
2022/03/25 00:24:05;;;;;;;47.03;31.77;;;9.30;93.60;;;;;;5034672;28;20803;-67
2022/03/25 00:26:31;;;;;;;44.33;30.57;;;9.30;93.70;;;;;;5035200;28;20178;-67
2022/03/25 00:28:57;;;;;;;42.30;31.60;;;9.30;93.70;;;;;;5035307;28;20428;-67
2022/03/25 00:31:23;;;;;;;46.20;32.33;;;9.30;93.90;;;;;;5035443;28;20452;-68
2022/03/25 00:33:51;;;;;;;41.40;30.90;;;9.30;93.90;;;;;;5036270;28;20698;-67
2022/03/25 00:36:18;;;;;;;42.90;30.60;;;9.20;94.10;;;;;;5036477;28;20171;-67
2022/03/25 00:38:44;;;;;;;46.87;31.67;;;9.20;94.20;;;;;;5035073;28;20421;-67
2022/03/25 00:41:12;;;;;;;46.47;31.70;;;9.20;94.20;;;;;;5034737;28;20429;-67
2022/03/25 00:43:38;;;;;;;48.50;32.73;;;9.10;94.20;;;;;;5035484;28;20420;-67
2022/03/25 00:46:04;;;;;;;44.13;32.20;;;9.10;94.30;;;;;;5035614;28;20410;-68
2022/03/25 00:48:30;;;;;;;44.60;30.40;;;9.00;94.40;;;;;;5035082;28;20421;-68
2022/03/25 00:50:55;;;;;;;44.87;31.87;;;9.00;94.50;;;;;;5034985;28;20486;-68
2022/03/25 00:53:22;;;;;;;46.33;31.63;;;9.00;94.60;;;;;;5035585;28;20256;-68
2022/03/25 00:55:47;;;;;;;45.90;32.40;;;8.90;94.60;;;;;;5035155;28;20220;-68
2022/03/25 00:58:14;;;;;;;45.80;31.63;;;8.90;94.70;;;;;;5033979;28;20421;-68
2022/03/25 01:00:43;;;;;;;45.10;29.97;;;8.90;94.70;;;;;;5032697;28;20208;-68
2022/03/25 01:03:08;;;;;;;45.50;32.03;;;8.90;94.70;;;;;;5034635;28;20759;-67
2022/03/25 01:05:34;;;;;;;42.90;30.90;;;8.80;94.80;;;;;;5034497;28;20408;-68
2022/03/25 01:08:00;;;;;;;44.87;32.57;;;8.80;94.80;;;;;;5035303;28;20190;-68
2022/03/25 01:10:25;;;;;;;47.33;32.87;;;8.80;95.00;;;;;;5033010;28;20561;-67
2022/03/25 01:12:51;;;;;;;48.80;33.07;;;8.70;95.40;;;;;;5034674;28;20422;-68
2022/03/25 01:15:17;;;;;;;44.80;33.37;;;8.50;95.80;;;;;;5035184;28;20198;-68
2022/03/25 01:17:43;;;;;;;44.50;32.53;;;8.50;96.30;;;;;;5033814;28;20408;-68
2022/03/25 01:20:09;;;;;;;45.03;32.03;;;8.50;96.70;;;;;;5032713;28;20210;-68
2022/03/25 01:22:35;;;;;;;41.67;30.93;;;8.30;97.20;;;;;;5033289;28;20177;-67
2022/03/25 01:25:01;;;;;;;42.17;30.77;;;8.30;97.50;;;;;;5033845;28;20467;-67
2022/03/25 01:27:27;;;;;;;50.40;31.67;;;8.30;97.50;;;;;;5033215;28;20419;-68
2022/03/25 01:29:52;;;;;;;44.50;31.53;;;8.30;97.40;;;;;;5032486;28;20455;-67
2022/03/25 01:32:18;;;;;;;42.13;29.73;;;8.40;97.30;;;;;;5032996;28;20182;-68
2022/03/25 01:34:43;;;;;;;44.80;32.17;;;8.30;97.30;;;;;;5036629;28;20523;-68
2022/03/25 01:37:09;;;;;;;44.27;31.33;;;8.20;97.40;;;;;;5036683;28;20177;-68
2022/03/25 01:39:35;;;;;;;46.33;32.43;;;8.20;97.70;;;;;;5036704;28;20209;-67
2022/03/25 01:42:00;;;;;;;44.37;31.53;;;8.20;97.70;;;;;;5036446;28;20178;-68
2022/03/25 01:44:28;;;;;;;40.33;29.90;;;8.20;97.60;;;;;;5036915;28;20172;-68
2022/03/25 01:46:54;;;;;;;45.47;32.53;;;8.30;97.50;;;;;;5036563;28;20740;-68
2022/03/25 01:49:20;;;;;;;46.13;30.50;;;8.40;97.50;;;;;;5036424;28;20421;-68
2022/03/25 01:51:50;;;;;;;43.73;30.30;;;8.30;97.40;;;;;;5036378;28;20417;-67
2022/03/25 01:54:34;;;;;;;49.53;32.10;;;8.40;97.40;;;;;;5037193;28;20417;-68
2022/03/25 01:57:03;;;;;;;44.97;32.60;;;8.40;97.30;;;;;;5039676;28;20407;-67
2022/03/25 01:59:30;;;;;;;41.87;30.37;;;8.40;97.30;;;;;;5038182;28;20483;-67
2022/03/25 02:01:56;;;;;;;40.90;29.73;;;8.30;97.40;;;;;;5037583;28;20433;-68
2022/03/25 02:04:22;;;;;;;41.53;30.30;;;8.10;97.60;;;;;;5036474;28;20431;-68
2022/03/25 02:06:48;;;;;;;40.50;29.67;;;8.10;97.70;;;;;;5037049;28;20419;-68
2022/03/25 02:09:14;;;;;;;43.27;30.00;;;8.10;97.80;;;;;;5036318;28;20798;-68
2022/03/25 02:11:40;;;;;;;42.57;30.90;;;8.00;97.90;;;;;;5037104;28;20433;-67
2022/03/25 02:14:07;;;;;;;44.17;30.27;;;7.80;98.40;;;;;;5036467;28;20180;-67
2022/03/25 02:16:42;;;;;;;40.87;29.20;;;7.70;98.70;;;;;;5035230;28;20419;-67
2022/03/25 02:19:11;;;;;;;46.30;29.77;;;7.80;98.70;;;;;;5036131;28;20477;-68
2022/03/25 02:21:38;;;;;;;38.57;28.43;;;7.80;98.80;;;;;;5036975;28;20414;-68
2022/03/25 02:24:06;;;;;;;42.50;30.17;;;7.80;98.80;;;;;;5039035;28;20927;-68
2022/03/25 02:26:32;;;;;;;46.03;30.33;;;7.70;98.90;;;;;;5037081;28;20796;-68
2022/03/25 02:29:00;;;;;;;41.70;30.70;;;7.70;99.00;;;;;;5037538;28;20418;-68
2022/03/25 02:31:26;;;;;;;43.20;29.97;;;7.80;98.90;;;;;;5036133;28;20434;-68
2022/03/25 02:33:58;;;;;;;42.37;29.87;;;7.90;98.80;;;;;;5036472;28;20528;-68
2022/03/25 02:36:23;;;;;;;42.67;29.17;;;7.90;98.70;;;;;;5036075;28;20783;-69
2022/03/25 02:38:49;;;;;;;40.37;29.10;;;7.90;98.60;;;;;;5036539;28;20457;-68
2022/03/25 02:41:15;;;;;;;45.23;30.17;;;7.90;98.60;;;;;;5037371;28;20199;-69
2022/03/25 02:43:40;;;;;;;35.97;25.27;;;7.90;98.50;;;;;;5038501;28;20596;-69
2022/03/25 02:46:06;;;;;;;43.57;30.63;;;7.90;98.40;;;;;;5027374;28;20252;-68
2022/03/25 02:48:32;;;;;;;43.37;28.83;;;7.80;98.60;;;;;;5028771;28;20181;-68
2022/03/25 02:50:58;;;;;;;45.33;30.43;;;7.80;98.70;;;;;;5036113;28;20203;-68
2022/03/25 02:53:23;;;;;;;41.90;29.17;;;7.80;98.70;;;;;;5036323;28;20420;-68
2022/03/25 02:55:49;;;;;;;45.97;29.47;;;7.70;98.70;;;;;;5035525;28;20179;-68
2022/03/25 02:58:15;;;;;;;40.67;28.67;;;7.80;98.80;;;;;;5036209;28;20189;-68
2022/03/25 03:00:42;;;;;;;43.63;31.13;;;7.80;98.80;;;;;;5036205;28;20203;-69
2022/03/25 03:03:08;;;;;;;40.30;29.60;;;7.80;98.80;;;;;;5038262;28;20421;-68
2022/03/25 03:05:33;;;;;;;42.60;30.23;;;7.60;99.00;;;;;;5038310;28;20405;-68
2022/03/25 03:07:59;;;;;;;43.83;30.57;;;7.70;99.20;;;;;;5038141;28;20905;-68
2022/03/25 03:10:25;;;;;;;46.70;30.00;;;7.60;99.10;;;;;;5035769;28;20594;-68
2022/03/25 03:12:55;;;;;;;39.43;28.90;;;7.60;99.20;;;;;;5029715;28;20235;-69
2022/03/25 03:15:21;;;;;;;40.77;29.80;;;7.70;99.20;;;;;;5025727;28;20446;-69
2022/03/25 03:17:48;;;;;;;39.10;28.13;;;7.80;99.20;;;;;;5035414;28;20560;-68
2022/03/25 03:20:15;;;;;;;43.60;29.63;;;7.70;99.10;;;;;;5034033;28;20536;-69
2022/03/25 03:22:41;;;;;;;42.60;29.27;;;7.70;99.10;;;;;;5035889;28;20438;-69
2022/03/25 03:25:07;;;;;;;41.30;29.73;;;7.60;99.40;;;;;;5035902;28;20434;-68
2022/03/25 03:27:33;;;;;;;38.60;28.23;;;7.60;99.60;;;;;;5037114;28;20195;-68
2022/03/25 03:29:58;;;;;;;42.23;29.33;;;7.60;99.60;;;;;;5035142;28;20456;-69
2022/03/25 03:32:28;;;;;;;41.13;29.43;;;7.50;99.70;;;;;;5035149;28;20187;-68
2022/03/25 03:34:54;;;;;;;40.63;29.47;;;7.50;99.90;;;;;;5034748;28;20183;-69
2022/03/25 03:37:20;;;;;;;39.90;27.73;;;7.50;99.90;;;;;;5035330;28;20406;-68
2022/03/25 03:39:47;;;;;;;39.63;28.87;;;7.50;99.90;;;;;;5035658;28;21032;-69
2022/03/25 03:42:12;;;;;;;37.37;27.33;;;7.50;99.90;;;;;;5039903;28;20477;-69
2022/03/25 03:44:38;;;;;;;43.90;28.70;;;7.50;99.90;;;;;;5038618;28;20541;-68
2022/03/25 03:47:06;;;;;;;41.53;28.40;;;7.60;99.80;;;;;;5037276;28;20166;-69
2022/03/25 03:49:33;;;;;;;41.77;27.20;;;7.60;99.80;;;;;;5036054;28;20504;-68
2022/03/25 03:51:59;;;;;;;42.07;28.73;;;7.60;99.90;;;;;;5028452;28;20488;-68
2022/03/25 03:54:24;;;;;;;39.30;28.13;;;7.50;99.90;;;;;;5030412;28;20423;-68
2022/03/25 03:56:50;;;;;;;41.30;27.97;;;7.60;99.90;;;;;;5036007;28;20175;-68
2022/03/25 03:59:15;;;;;;;38.77;28.30;;;7.60;99.80;;;;;;5036479;28;20207;-68
2022/03/25 04:01:41;;;;;;;41.30;29.00;;;7.60;99.70;;;;;;5036314;28;20171;-68
2022/03/25 04:04:06;;;;;;;36.93;27.03;;;7.60;99.70;;;;;;5034576;28;20175;-68
2022/03/25 04:06:33;;;;;;;43.50;27.27;;;7.50;99.50;;;;;;5035359;28;20259;-68
2022/03/25 04:08:58;;;;;;;41.23;28.80;;;7.40;99.90;;;;;;5036649;28;20173;-68
2022/03/25 04:11:24;;;;;;;41.20;28.47;;;7.30;99.90;;;;;;5049038;23;20495;-70
2022/03/25 04:13:50;;;;;;;39.60;27.40;;;7.30;99.90;;;;;;5031862;28;20183;-70
2022/03/25 04:16:15;;;;;;;38.53;26.37;;;7.30;99.90;;;;;;5031527;28;20870;-69
2022/03/25 04:18:41;;;;;;;45.37;28.63;;;7.20;99.90;;;;;;5031992;28;20178;-69
2022/03/25 04:21:06;;;;;;;42.50;26.90;;;7.30;99.90;;;;;;5031585;28;20210;-70
2022/03/25 04:23:32;;;;;;;41.00;27.80;;;7.30;99.90;;;;;;5031405;28;20652;-70
2022/03/25 04:25:58;;;;;;;43.10;28.03;;;7.30;99.90;;;;;;5031797;28;20646;-69
2022/03/25 04:28:23;;;;;;;39.90;28.43;;;7.30;99.90;;;;;;5031594;28;20276;-70
2022/03/25 04:30:49;;;;;;;45.13;27.63;;;7.30;99.90;;;;;;5031124;28;20203;-69
2022/03/25 04:33:15;;;;;;;37.53;26.10;;;7.20;99.90;;;;;;5031500;28;20555;-69
2022/03/25 04:35:40;;;;;;;40.00;27.30;;;7.30;99.90;;;;;;5031866;28;20237;-70
2022/03/25 04:38:07;;;;;;;41.77;27.40;;;7.30;99.90;;;;;;5031417;28;20211;-70
2022/03/25 04:40:34;;;;;;;38.47;26.93;;;7.20;99.90;;;;;;5031095;28;20687;-70
2022/03/25 04:43:00;;;;;;;37.63;26.47;;;7.20;99.90;;;;;;5031738;28;20418;-70
2022/03/25 04:45:28;;;;;;;42.03;27.70;;;7.20;99.90;;;;;;5031659;28;20437;-70
2022/03/25 04:47:54;;;;;;;41.93;27.27;;;7.20;99.90;;;;;;5031464;28;20432;-70
2022/03/25 04:50:20;;;;;;;38.23;26.70;;;7.20;99.90;;;;;;5031676;28;20442;-70
2022/03/25 04:52:46;;;;;;;40.37;27.10;;;7.10;99.90;;;;;;5031601;28;20602;-70
2022/03/25 04:55:12;;;;;;;37.27;26.37;;;7.00;99.90;;;;;;5031639;28;20475;-70
2022/03/25 04:57:39;;;;;;;40.10;26.37;;;6.90;99.90;;;;;;5031471;28;20414;-70
2022/03/25 05:00:05;;;;;;;54.80;27.67;;;6.90;99.90;;;;;;5029392;28;20202;-69
2022/03/25 05:02:31;;;;;;;38.70;28.03;;;6.90;99.90;;;;;;5031437;28;20445;-70
2022/03/25 05:04:56;;;;;;;37.80;26.47;;;6.80;99.90;;;;;;5031519;28;20448;-69
2022/03/25 05:07:22;;;;;;;42.00;28.10;;;6.80;99.90;;;;;;5031589;28;20174;-70
2022/03/25 05:09:48;;;;;;;37.97;25.93;;;6.80;99.90;;;;;;5034737;28;20187;-70
2022/03/25 05:12:14;;;;;;;45.10;27.80;;;6.80;99.90;;;;;;5035398;28;20575;-69
2022/03/25 05:14:40;;;;;;;35.30;24.60;;;6.80;99.90;;;;;;5035210;28;20179;-70
2022/03/25 05:17:06;;;;;;;38.70;26.93;;;6.70;99.90;;;;;;5035370;28;20436;-69
2022/03/25 05:19:32;;;;;;;39.70;27.10;;;6.80;99.90;;;;;;5034711;28;20460;-70
2022/03/25 05:21:58;;;;;;;36.47;25.17;;;6.70;99.90;;;;;;5035523;28;20199;-70
2022/03/25 05:24:27;;;;;;;38.23;25.63;;;6.70;99.90;;;;;;5035182;28;20459;-69
2022/03/25 05:26:53;;;;;;;40.57;26.57;;;6.70;99.90;;;;;;5035336;28;20493;-70
2022/03/25 05:29:20;;;;;;;36.90;25.90;;;6.60;99.90;;;;;;5035490;28;20453;-70
2022/03/25 05:31:45;;;;;;;36.87;27.70;;;6.60;99.90;;;;;;5036441;28;20437;-70
2022/03/25 05:34:12;;;;;;;38.03;25.30;;;6.70;99.90;;;;;;5035466;28;20425;-69
2022/03/25 05:36:37;;;;;;;40.70;25.07;;;6.70;99.90;;;;;;5035685;28;20197;-69
2022/03/25 05:39:04;;;;;;;38.90;25.77;;;6.70;99.90;;;;;;5035239;28;20427;-69
2022/03/25 05:41:29;;;;;;;36.60;24.73;;;6.80;99.90;;;;;;5047295;28;20564;-69
2022/03/25 05:43:55;;;;;;;40.97;26.60;;;6.80;99.90;;;;;;5051251;28;20460;-69
2022/03/25 05:46:21;;;;;;;39.97;27.23;;;6.80;99.90;;;;;;5051825;28;20240;-69
2022/03/25 05:48:47;;;;;;;37.60;24.90;;;6.80;99.90;;;;;;5052425;28;20240;-69
2022/03/25 05:51:13;;;;;;;38.83;26.70;;;6.80;99.90;;;;;;5050089;28;20448;-70
2022/03/25 05:53:42;;;;;;;38.77;27.33;;;6.80;99.90;;;;;;5050166;28;20229;-70
2022/03/25 05:56:08;;;;;;;42.13;28.13;;;6.70;99.90;;;;;;5050883;28;20425;-70
2022/03/25 05:58:37;;;;;;;37.60;26.50;;;6.80;99.90;;;;;;5037709;28;20441;-69
2022/03/25 06:01:05;;;;;;;38.73;25.40;;;6.80;99.90;;;;;;5034223;28;20472;-70
2022/03/25 06:03:32;;;;;;;39.97;26.50;;;6.90;99.90;;;;;;5034363;28;20422;-70
2022/03/25 06:05:58;;;;;;;41.50;26.87;;;6.90;99.90;;;;;;5035130;28;20414;-69
2022/03/25 06:08:24;;;;;;;35.30;25.80;;;6.90;99.90;;;;;;5034390;28;20448;-69
2022/03/25 06:10:50;;;;;;;42.23;26.97;;;7.00;99.90;;;;;;5034129;28;20485;-70
2022/03/25 06:13:16;;;;;;;45.30;26.90;;;6.90;99.90;;;;;;5034287;28;20193;-69
2022/03/25 06:15:42;;;;;;;44.87;26.90;;;7.00;99.90;;;;;;5034665;28;20413;-69
2022/03/25 06:18:07;;;;;;;36.13;24.97;;;7.00;99.90;;;;;;5034569;28;20484;-69
2022/03/25 06:20:33;;;;;;;43.63;26.73;;;7.00;99.90;;;;;;5033712;28;20237;-70
2022/03/25 06:22:58;;;;;;;36.10;25.63;;;7.00;99.90;;;;;;5033723;28;20521;-69
2022/03/25 06:25:24;;;;;;;38.70;25.73;;;7.00;99.90;;;;;;5034071;28;20207;-71
2022/03/25 06:27:58;;;;;;;40.77;26.30;;;7.10;99.90;;;;;;5034544;28;20254;-70
2022/03/25 06:30:27;;;;;;;38.27;25.87;;;7.10;99.90;;;;;;5033452;28;20234;-69
2022/03/25 06:32:54;;;;;;;38.37;26.00;;;7.10;99.90;;;;;;5033689;28;20417;-70
2022/03/25 06:35:20;;;;;;;37.30;24.83;;;7.10;99.90;;;;;;5033789;28;20767;-70
2022/03/25 06:37:47;;;;;;;35.93;23.90;;;7.20;99.90;;;;;;5033936;28;20449;-69
2022/03/25 06:40:14;;;;;;;37.67;25.20;;;7.20;99.90;;;;;;5033584;28;20544;-70
2022/03/25 06:42:41;;;;;;;36.07;25.33;;;7.20;99.90;;;;;;5033939;28;20782;-69
2022/03/25 06:45:09;;;;;;;41.13;27.17;;;7.20;99.90;;;;;;5033741;28;20457;-69
2022/03/25 06:47:35;;;;;;;38.37;25.20;;;7.20;99.90;;;;;;5033581;28;20568;-70
2022/03/25 06:50:03;;;;;;;38.97;27.00;;;7.30;99.90;;;;;;5034265;28;20441;-70
2022/03/25 06:52:29;;;;;;;40.97;24.27;;;7.40;99.90;;;;;;5034042;28;20516;-70
2022/03/25 06:54:54;;;;;;;38.13;26.07;;;7.50;99.90;;;;;;5033819;28;20515;-70
2022/03/25 06:57:21;;;;;;;37.57;25.53;;;7.60;99.90;;;;;;5033531;28;20608;-70
2022/03/25 06:59:47;;;;;;;39.03;26.03;;;7.70;99.90;;;;;;5031047;28;20253;-70
2022/03/25 07:02:15;;;;;;;39.10;25.57;;;7.80;99.90;;;;;;5042967;28;20453;-70
2022/03/25 07:04:41;;;;;;;36.37;26.37;;;7.80;99.90;;;;;;5023919;28;20463;-70
2022/03/25 07:07:07;;;;;;;49.33;28.97;;;7.90;99.90;;;;;;5044605;28;20831;-70
2022/03/25 07:09:33;;;;;;;45.03;28.33;;;8.00;99.90;;;;;;5033447;28;20560;-71
2022/03/25 07:12:00;;;;;;;43.00;26.83;;;8.10;99.90;;;;;;5044636;28;20457;-71
2022/03/25 07:14:26;;;;;;;41.23;26.97;;;8.10;99.90;;;;;;5036696;28;20457;-71
2022/03/25 07:16:52;;;;;;;40.33;26.40;;;8.20;99.90;;;;;;5031654;28;20441;-71
2022/03/25 07:19:18;;;;;;;45.80;28.83;;;8.20;99.90;;;;;;5031609;28;20555;-71
2022/03/25 07:21:44;;;;;;;37.37;26.33;;;8.30;99.60;;;;;;5031877;28;20280;-71
2022/03/25 07:24:11;;;;;;;38.50;27.53;;;8.30;99.30;;;;;;5031732;28;20214;-71
2022/03/25 07:26:37;;;;;;;40.00;26.93;;;8.40;99.20;;;;;;5032302;28;20440;-71
2022/03/25 07:29:03;;;;;;;41.83;28.27;;;8.40;99.00;;;;;;5031478;28;20451;-71
2022/03/25 07:31:29;;;;;;;38.43;26.90;;;8.50;98.70;;;;;;5031654;28;20426;-71
2022/03/25 07:33:55;;;;;;;41.50;26.77;;;8.60;98.50;;;;;;5031722;28;20456;-71
2022/03/25 07:36:21;;;;;;;41.28;27.25;;;8.70;98.20;;;;;;5051486;28;20404;-71
2022/03/25 07:38:46;;;;;;;38.23;25.97;;;8.70;98.00;;;;;;5052653;28;20273;-70
2022/03/25 07:41:12;;;;;;;41.53;26.90;;;8.80;97.90;;;;;;5052865;28;20216;-71
2022/03/25 07:43:39;;;;;;;41.50;26.73;;;8.90;97.70;;;;;;5035909;28;20243;-69
2022/03/25 07:46:05;;;;;;;40.38;25.63;;;9.00;97.50;;;;;;5045747;28;20428;-70
2022/03/25 07:48:30;;;;;;;39.87;26.57;;;9.10;97.30;;;;;;5048895;28;20195;-70
2022/03/25 07:50:56;;;;;;;37.20;26.67;;;9.20;97.10;;;;;;5046186;28;20795;-70
2022/03/25 07:53:25;;;;;;;37.10;26.50;;;9.30;96.90;;;;;;5045250;28;20203;-70
2022/03/25 07:55:51;;;;;;;40.37;27.27;;;9.40;96.60;;;;;;5046174;28;20449;-71
2022/03/25 07:58:21;;;;;;;41.23;26.90;;;9.50;96.40;;;;;;5045952;28;20437;-68
2022/03/25 08:00:48;;;;;;;35.73;25.20;;;9.60;96.20;;;;;;5047184;28;20493;-71
2022/03/25 08:03:16;;;;;;;36.73;25.47;;;9.70;96.10;;;;;;5035111;28;20552;-69
2022/03/25 08:05:42;;;;;;;35.53;25.30;;;9.80;95.90;;;;;;5030128;28;20461;-70
2022/03/25 08:08:08;;;;;;;42.43;24.63;;;9.90;95.70;;;;;;5031582;28;20439;-70
2022/03/25 08:10:35;;;;;;;39.40;25.53;;;10.00;94.90;;;;;;5050686;28;20551;-71
2022/03/25 08:13:01;;;;;;;36.47;24.83;;;10.10;94.70;;;;;;5047989;28;20432;-71
2022/03/25 08:15:30;;;;;;;40.93;25.90;;;10.20;94.40;;;;;;5029584;28;20536;-71
2022/03/25 08:18:00;;;;;;;36.90;24.80;;;10.30;94.20;;;;;;5030851;28;20229;-71
2022/03/25 08:20:28;;;;;;;36.80;26.07;;;10.40;94.00;;;;;;5030968;28;20556;-70
2022/03/25 08:22:56;;;;;;;39.57;25.30;;;10.50;94.10;;;;;;5030850;28;20437;-72
2022/03/25 08:28:06;;;;;;;38.30;23.83;;;10.70;93.40;;;;;;5030355;28;20452;-69
2022/03/25 08:30:32;;;;;;;34.53;23.00;;;10.90;93.00;;;;;;5030588;28;20461;-70
2022/03/25 08:32:59;;;;;;;31.60;23.27;;;11.00;92.80;;;;;;5031188;28;20621;-70
2022/03/25 08:35:28;;;;;;;34.37;22.70;;;11.10;92.40;;;;;;5030335;28;20969;-69
2022/03/25 08:37:54;;;;;;;34.00;22.70;;;11.20;92.10;;;;;;5030421;28;20469;-70
2022/03/25 08:40:26;;;;;;;33.80;23.93;;;11.40;91.70;;;;;;5030327;28;20568;-70
2022/03/25 08:42:51;;;;;;;35.03;22.97;;;11.50;91.70;;;;;;5029852;28;20851;-70
2022/03/25 08:45:17;;;;;;;33.67;22.13;;;11.60;91.00;;;;;;5030188;28;20483;-70
2022/03/25 08:47:44;;;;;;;34.37;24.27;;;11.70;90.60;;;;;;5030765;28;20209;-70
2022/03/25 08:50:12;;;;;;;33.70;21.60;;;11.90;90.20;;;;;;5030248;28;20519;-70
2022/03/25 08:52:39;;;;;;;29.33;19.87;;;12.00;89.00;;;;;;5029344;28;20460;-70
2022/03/25 08:55:06;;;;;;;28.33;18.70;;;12.20;87.20;;;;;;5029927;28;21080;-70
2022/03/25 08:57:32;;;;;;;30.93;21.00;;;12.30;86.50;;;;;;5030229;28;20481;-70
2022/03/25 08:59:57;;;;;;;29.50;18.40;;;12.50;85.20;;;;;;5030088;28;20512;-70
2022/03/25 09:02:23;;;;;;;32.57;17.37;;;12.60;84.30;;;;;;5030214;28;21033;-69
2022/03/25 09:04:48;;;;;;;26.80;17.90;;;12.70;82.80;;;;;;5030884;28;20682;-69
2022/03/25 09:07:14;;;;;;;24.97;17.73;;;12.90;81.50;;;;;;5029753;28;20298;-70
2022/03/25 09:09:40;;;;;;;23.57;15.87;;;13.10;80.30;;;;;;5037480;28;20747;-69
2022/03/25 09:12:07;;;;;;;21.97;16.47;;;13.20;78.60;;;;;;5028179;28;21092;-70
2022/03/25 09:14:33;;;;;;;22.80;14.43;;;13.30;76.90;;;;;;5028984;28;20218;-70
2022/03/25 09:16:59;;;;;;;29.57;15.67;;;13.40;76.40;;;;;;5030807;28;20834;-70
2022/03/25 09:19:25;;;;;;;24.77;14.47;;;13.50;74.60;;;;;;5030572;28;20207;-70
2022/03/25 09:21:50;;;;;;;23.73;15.00;;;13.60;74.30;;;;;;5030436;28;20433;-70
2022/03/25 09:24:16;;;;;;;23.77;14.60;;;13.60;74.40;;;;;;5030366;28;20167;-70
2022/03/25 09:26:41;;;;;;;25.30;14.63;;;13.80;74.00;;;;;;5031328;28;20171;-70
2022/03/25 09:29:08;;;;;;;19.83;14.17;;;14.00;73.60;;;;;;5030192;28;20179;-70
2022/03/25 09:31:34;;;;;;;20.80;14.23;;;14.10;72.50;;;;;;5030835;28;20191;-70
2022/03/25 09:36:43;;;;;;;24.17;16.53;;;14.30;71.10;;;;;;5030560;28;20596;-70
2022/03/25 09:39:09;;;;;;;24.80;15.87;;;14.40;71.40;;;;;;5030634;28;20409;-70
2022/03/25 09:41:35;;;;;;;18.17;13.93;;;14.50;71.10;;;;;;5031114;28;20851;-70
2022/03/25 09:44:03;;;;;;;24.77;16.07;;;14.70;71.10;;;;;;5030532;28;20194;-70
2022/03/25 09:46:29;;;;;;;24.67;15.67;;;14.70;70.50;;;;;;5030305;28;20501;-70
2022/03/25 09:48:54;;;;;;;24.77;17.33;;;14.60;71.10;;;;;;5030842;28;20494;-70
2022/03/25 09:51:20;;;;;;;23.83;16.50;;;14.50;70.00;;;;;;5030638;28;20199;-72
2022/03/25 09:53:47;;;;;;;19.93;14.77;;;14.50;70.00;;;;;;5030938;28;20619;-70
2022/03/25 09:56:15;;;;;;;28.33;15.87;;;14.50;69.90;;;;;;5034559;28;20678;-70
2022/03/25 09:58:41;;;;;;;26.20;15.23;;;14.50;70.70;;;;;;5034285;28;20432;-70
2022/03/25 10:01:06;;;;;;;26.70;16.33;;;14.70;70.90;;;;;;5033556;28;20469;-70
2022/03/25 10:03:37;;;;;;;23.20;14.97;;;14.80;69.50;;;;;;5034042;28;20201;-70
2022/03/25 10:06:09;;;;;;;26.10;16.07;;;14.90;69.10;;;;;;5034523;28;20216;-70
2022/03/25 10:08:35;;;;;;;25.30;16.23;;;15.00;67.60;;;;;;5038151;28;20405;-69
2022/03/25 10:11:25;;;;;;;25.97;15.53;;;15.10;67.10;;;;;;5053786;28;20455;-71
2022/03/25 10:14:15;;;;;;;23.57;16.30;;;15.10;67.20;;;;;;5042690;28;20232;-70
2022/03/25 10:16:49;;;;;;;24.63;16.53;;;15.10;67.20;;;;;;5054583;28;20401;-70
2022/03/25 10:19:19;;;;;;;25.30;17.17;;;15.20;67.40;;;;;;5053803;28;20401;-70
2022/03/25 10:21:57;;;;;;;26.23;17.17;;;15.30;67.30;;;;;;5033629;28;20635;-70
2022/03/25 10:24:58;;;;;;;26.23;17.60;;;15.30;66.60;;;;;;5033738;28;20984;-70
2022/03/25 10:27:29;;;;;;;26.07;17.20;;;15.30;67.70;;;;;;4972688;28;20802;-70
2022/03/25 10:29:57;;;;;;;25.20;17.90;;;15.50;67.90;;;;;;4972108;28;20471;-71
2022/03/25 10:32:27;;;;;;;24.70;18.43;;;15.50;67.60;;;;;;4972534;28;20432;-70
2022/03/25 10:35:11;;;;;;;25.33;17.80;;;15.70;67.80;;;;;;4972791;28;20816;-70
2022/03/25 10:37:56;;;;;;;24.90;18.10;;;15.70;68.20;;;;;;4972398;28;20421;-71
2022/03/25 10:40:22;;;;;;;28.57;18.63;;;15.60;67.10;;;;;;4972040;28;20527;-69
2022/03/25 10:43:07;;;;;;;31.57;17.53;;;15.50;67.70;;;;;;4972267;28;20782;-70
2022/03/25 10:45:39;;;;;;;24.17;17.90;;;15.70;71.60;;;;;;4972190;28;20609;-70
2022/03/25 10:48:30;;;;;;;27.33;18.87;;;15.70;68.90;;;;;;4972188;28;20765;-70
2022/03/25 10:51:01;;;;;;;26.87;17.23;;;15.80;68.40;;;;;;4968794;28;20452;-70
2022/03/25 10:53:29;;;;;;;25.67;19.60;;;15.70;67.60;;;;;;4971772;28;20424;-70
2022/03/25 10:55:59;;;;;;;26.67;19.23;;;15.90;68.30;;;;;;4971778;28;20437;-70
2022/03/25 10:58:25;;;;;;;31.40;20.20;;;16.10;69.40;;;;;;4972003;28;20181;-70
2022/03/25 11:00:54;;;;;;;23.97;18.93;;;16.10;68.90;;;;;;4983035;28;20466;-70
2022/03/25 11:03:20;;;;;;;30.43;20.00;;;16.20;68.50;;;;;;5013333;28;20502;-70
2022/03/25 11:05:45;;;;;;;27.30;19.17;;;16.00;68.60;;;;;;5012901;28;20466;-70
2022/03/25 11:08:11;;;;;;;30.43;19.40;;;16.00;68.50;;;;;;5025854;28;20178;-70
2022/03/25 11:10:38;;;;;;;26.80;18.17;;;15.90;68.10;;;;;;5033773;28;20222;-71
2022/03/25 11:13:04;;;;;;;28.23;19.00;;;16.00;68.70;;;;;;5031047;28;20512;-70
2022/03/25 11:15:31;;;;;;;26.20;16.87;;;16.10;68.70;;;;;;5032647;28;20441;-70
2022/03/25 11:17:58;;;;;;;26.30;18.50;;;16.20;68.50;;;;;;5031843;28;20458;-70
2022/03/25 11:20:26;;;;;;;22.20;18.30;;;16.20;67.70;;;;;;5031355;28;20556;-70
2022/03/25 11:22:57;;;;;;;24.40;19.00;;;16.10;67.40;;;;;;5030932;28;20449;-70
2022/03/25 11:25:24;;;;;;;26.30;17.53;;;16.20;67.70;;;;;;5031708;28;20476;-70
2022/03/25 11:28:13;;;;;;;26.07;17.43;;;16.20;67.60;;;;;;5013408;28;20851;-70
2022/03/25 11:30:39;;;;;;;30.30;18.10;;;16.20;67.60;;;;;;5030193;28;20460;-70
2022/03/25 11:33:06;;;;;;;25.70;18.10;;;16.30;67.90;;;;;;5031564;28;20450;-70
2022/03/25 11:35:39;;;;;;;27.80;17.43;;;16.30;66.90;;;;;;5032232;28;20203;-70
2022/03/25 11:38:14;;;;;;;31.60;18.60;;;16.30;66.50;;;;;;5031266;28;20478;-70
2022/03/25 11:40:44;;;;;;;28.17;19.60;;;16.30;66.40;;;;;;5031410;28;20866;-70
2022/03/25 11:43:19;;;;;;;29.33;20.40;;;16.20;66.30;;;;;;5038034;28;20817;-70
2022/03/25 11:46:00;;;;;;;24.43;18.70;;;16.20;67.00;;;;;;5047424;28;20828;-70
2022/03/25 11:48:26;;;;;;;25.33;15.73;;;16.20;66.80;;;;;;5032178;28;20413;-69
2022/03/25 11:50:54;;;;;;;26.47;17.80;;;16.10;65.60;;;;;;5031715;28;20438;-70
2022/03/25 11:53:22;;;;;;;23.20;14.70;;;16.10;65.90;;;;;;5031884;28;20167;-70
2022/03/25 11:56:04;;;;;;;19.23;15.00;;;16.10;65.50;;;;;;5032498;28;20417;-70
2022/03/25 11:58:31;;;;;;;19.13;14.27;;;16.00;64.70;;;;;;5031976;28;20796;-70
2022/03/25 12:01:17;;;;;;;23.13;13.37;;;15.90;64.70;;;;;;5031585;28;20461;-72
2022/03/25 12:03:49;;;;;;;23.43;15.10;;;16.00;64.80;;;;;;5030268;28;20508;-70
2022/03/25 12:06:15;;;;;;;24.53;13.60;;;15.90;64.00;;;;;;5032091;28;20413;-70
2022/03/25 12:09:05;;;;;;;24.73;12.10;;;15.90;64.80;;;;;;5036605;28;20479;-70
2022/03/25 12:11:50;;;;;;;23.80;13.43;;;16.00;63.70;;;;;;5051740;28;20453;-70
2022/03/25 12:14:19;;;;;;;21.53;12.83;;;15.90;63.60;;;;;;5052198;28;20416;-71
2022/03/25 12:16:47;;;;;;;19.73;12.83;;;15.90;62.70;;;;;;5035206;28;20429;-70
2022/03/25 12:19:31;;;;;;;16.40;13.30;;;15.90;62.30;;;;;;5031765;28;20921;-70
2022/03/25 12:22:00;;;;;;;19.13;12.60;;;15.90;63.80;;;;;;5031591;28;20528;-69
2022/03/25 12:24:27;;;;;;;18.30;11.83;;;16.00;66.10;;;;;;5031100;28;20547;-69
2022/03/25 12:26:55;;;;;;;17.97;12.90;;;16.00;63.80;;;;;;5031109;28;20413;-69
2022/03/25 12:29:31;;;;;;;19.93;11.67;;;16.00;61.40;;;;;;5030845;28;20417;-69
2022/03/25 12:32:00;;;;;;;18.23;13.57;;;16.10;68.60;;;;;;5031185;28;20425;-69
2022/03/25 12:34:34;;;;;;;15.63;11.30;;;16.10;62.90;;;;;;5031043;28;20777;-69
2022/03/25 12:37:02;;;;;;;18.40;12.87;;;16.20;65.30;;;;;;5031031;28;20936;-70
2022/03/25 12:39:29;;;;;;;14.60;9.57;;;16.30;65.10;;;;;;5030511;28;20437;-70
2022/03/25 12:41:55;;;;;;;15.57;9.90;;;16.30;65.40;;;;;;5030936;28;20430;-70